createdAt,value
2018-06-01T00:01:40.882Z,102026.59
2018-06-01T00:04:08.475Z,102040.80
2018-06-01T00:06:36.078Z,102034.02
2018-06-01T00:09:03.749Z,102026.52
2018-06-01T00:11:31.381Z,102018.49
2018-06-01T00:13:59.041Z,102023.52
2018-06-01T00:16:26.631Z,102027.64
2018-06-01T00:18:54.285Z,102030.20
2018-06-01T00:21:21.890Z,102027.42
2018-06-01T00:23:49.523Z,102020.64
2018-06-01T00:26:17.114Z,102012.28
2018-06-01T00:28:44.714Z,102019.06
2018-06-01T00:31:12.315Z,102012.80
2018-06-01T00:33:39.912Z,102012.57
2018-06-01T00:36:07.511Z,102005.36
2018-06-01T00:38:35.122Z,102001.81
2018-06-01T00:41:02.738Z,102004.16
2018-06-01T00:43:30.365Z,102000.14
2018-06-01T00:45:57.998Z,101997.86
2018-06-01T00:48:25.605Z,101994.38
2018-06-01T00:50:53.213Z,102001.70
2018-06-01T00:53:20.808Z,101995.50
2018-06-01T00:55:48.424Z,101995.07
2018-06-01T00:58:16.024Z,101994.27
2018-06-01T01:00:43.640Z,101998.33
2018-06-01T01:03:11.241Z,102003.91
2018-06-01T01:05:38.834Z,102000.39
2018-06-01T01:08:06.486Z,102001.84
2018-06-01T01:10:34.084Z,102000.88
2018-06-01T01:13:01.692Z,101998.69
2018-06-01T01:15:29.301Z,102000.05
2018-06-01T01:17:56.910Z,101993.76
2018-06-01T01:20:24.556Z,101995.66
2018-06-01T01:22:52.191Z,101996.67
2018-06-01T01:25:19.875Z,101990.39
2018-06-01T01:27:47.476Z,101989.03
2018-06-01T01:30:15.064Z,101978.83
2018-06-01T01:32:42.671Z,101971.61
2018-06-01T01:35:10.300Z,101983.44
2018-06-01T01:37:37.922Z,101978.94
2018-06-01T01:40:05.548Z,101981.22
2018-06-01T01:42:33.143Z,101974.97
2018-06-01T01:45:00.740Z,101971.83
2018-06-01T01:47:28.364Z,101968.36
2018-06-01T01:49:56.007Z,101965.66
2018-06-01T01:52:23.620Z,101962.11
2018-06-01T01:54:51.246Z,101958.59
2018-06-01T01:57:18.874Z,101962.71
2018-06-01T01:59:46.461Z,101955.87
2018-06-01T02:02:14.070Z,101958.22
2018-06-01T02:04:41.661Z,101953.92
2018-06-01T02:07:09.261Z,101951.73
2018-06-01T02:09:36.895Z,101952.23
2018-06-01T02:12:04.487Z,101947.78
2018-06-01T02:14:32.092Z,101943.38
2018-06-01T02:16:59.694Z,101938.50
2018-06-01T02:19:27.299Z,101948.58
2018-06-01T02:21:54.889Z,101951.02
2018-06-01T02:24:22.480Z,101955.61
2018-06-01T02:26:50.082Z,101944.25
2018-06-01T02:29:17.688Z,101949.18
2018-06-01T02:31:45.306Z,101948.69
2018-06-01T02:34:12.916Z,101948.63
2018-06-01T02:36:40.509Z,101946.70
2018-06-01T02:39:08.111Z,101934.81
2018-06-01T02:41:35.725Z,101932.53
2018-06-01T02:44:03.399Z,101931.80
2018-06-01T02:46:30.997Z,101925.83
2018-06-01T02:48:58.598Z,101922.63
2018-06-01T02:51:26.227Z,101920.20
2018-06-01T02:53:53.820Z,101920.08
2018-06-01T02:56:21.414Z,101918.35
2018-06-01T02:58:49.016Z,101925.41
2018-06-01T03:01:16.613Z,101923.19
2018-06-01T03:03:44.203Z,101923.71
2018-06-01T03:06:11.894Z,101924.48
2018-06-01T03:08:39.486Z,101923.84
2018-06-01T03:11:07.073Z,101921.02
2018-06-01T03:13:34.686Z,101923.37
2018-06-01T03:16:02.273Z,101926.39
2018-06-01T03:18:29.885Z,101928.25
2018-06-01T03:20:57.488Z,101926.14
2018-06-01T03:23:25.088Z,101922.29
2018-06-01T03:25:52.698Z,101923.44
2018-06-01T03:28:20.399Z,101925.81
2018-06-01T03:30:47.998Z,101917.84
2018-06-01T03:33:15.593Z,101912.08
2018-06-01T03:35:43.211Z,101906.88
2018-06-01T03:38:10.807Z,101900.31
2018-06-01T03:40:38.393Z,101894.67
2018-06-01T03:43:05.990Z,101900.69
2018-06-01T03:45:33.641Z,101897.61
2018-06-01T03:48:01.237Z,101893.26
2018-06-01T03:50:28.827Z,101895.27
2018-06-01T03:52:56.424Z,101899.83
2018-06-01T03:55:24.027Z,101904.55
2018-06-01T03:57:51.675Z,101901.93
2018-06-01T04:00:19.268Z,101893.57
2018-06-01T04:02:46.884Z,101898.35
2018-06-01T04:05:14.479Z,101900.36
2018-06-01T04:07:42.085Z,101904.64
2018-06-01T04:10:09.680Z,101908.44
2018-06-01T04:12:37.277Z,101905.94
2018-06-01T04:15:04.877Z,101913.00
2018-06-01T04:17:32.479Z,101908.68
2018-06-01T04:20:00.102Z,101902.05
2018-06-01T04:22:27.751Z,101907.26
2018-06-01T04:24:55.343Z,101897.97
2018-06-01T04:27:22.935Z,101900.46
2018-06-01T04:29:50.522Z,101892.90
2018-06-01T04:32:18.118Z,101890.89
2018-06-01T04:34:45.706Z,101882.86
2018-06-01T04:37:13.302Z,101886.74
2018-06-01T04:39:40.900Z,101882.88
2018-06-01T04:42:08.518Z,101885.44
2018-06-01T04:44:36.107Z,101886.45
2018-06-01T04:47:03.721Z,101883.08
2018-06-01T04:49:31.310Z,101879.80
2018-06-01T04:51:58.904Z,101888.16
2018-06-01T04:54:26.523Z,101886.15
2018-06-01T04:56:54.128Z,101894.51
2018-06-01T04:59:21.720Z,101887.33
2018-06-01T05:01:49.363Z,101889.06
2018-06-01T05:04:17.015Z,101885.26
2018-06-01T05:06:44.613Z,101889.11
2018-06-01T05:09:12.259Z,101888.39
2018-06-01T05:11:39.883Z,101888.16
2018-06-01T05:14:07.475Z,101889.40
2018-06-01T05:16:35.138Z,101889.58
2018-06-01T05:19:02.723Z,101887.56
2018-06-01T05:21:30.333Z,101887.83
2018-06-01T05:23:57.920Z,101879.12
2018-06-01T05:26:25.536Z,101877.04
2018-06-01T05:28:53.177Z,101873.06
2018-06-01T05:31:20.779Z,101872.08
2018-06-01T05:33:48.393Z,101871.35
2018-06-01T05:36:15.989Z,101872.55
2018-06-01T05:38:43.653Z,101870.56
2018-06-01T05:41:11.243Z,101866.69
2018-06-01T05:43:38.821Z,101861.09
2018-06-01T05:46:06.412Z,101865.01
2018-06-01T05:48:34.038Z,101863.85
2018-06-01T05:51:01.626Z,101856.92
2018-06-01T05:53:29.227Z,101853.98
2018-06-01T05:55:56.821Z,101847.45
2018-06-01T05:58:24.428Z,101848.08
2018-06-01T06:00:52.019Z,101842.35
2018-06-01T06:03:19.616Z,101836.78
2018-06-01T06:05:47.213Z,101827.77
2018-06-01T06:08:14.821Z,101833.03
2018-06-01T06:10:42.435Z,101829.75
2018-06-01T06:13:10.016Z,101831.44
2018-06-01T06:15:37.601Z,101822.79
2018-06-01T06:18:05.241Z,101823.48
2018-06-01T06:20:32.856Z,101815.69
2018-06-01T06:23:00.451Z,101819.61
2018-06-01T06:25:28.154Z,101820.34
2018-06-01T06:27:55.748Z,101816.52
2018-06-01T06:30:30.521Z,101820.44
2018-06-01T06:32:58.112Z,101814.06
2018-06-01T06:35:25.781Z,101822.39
2018-06-01T06:37:53.374Z,101819.44
2018-06-01T06:40:21.096Z,101822.95
2018-06-01T06:42:48.779Z,101819.57
2018-06-01T06:45:16.439Z,101815.49
2018-06-01T06:47:44.021Z,101813.90
2018-06-01T06:50:11.685Z,101809.31
2018-06-01T06:52:39.276Z,101810.68
2018-06-01T06:55:06.937Z,101809.31
2018-06-01T06:57:34.518Z,101809.31
2018-06-01T07:00:02.114Z,101802.78
2018-06-01T07:02:29.724Z,101802.28
2018-06-01T07:04:57.338Z,101799.06
2018-06-01T07:07:25.010Z,101794.98
2018-06-01T07:09:52.669Z,101794.81
2018-06-01T07:12:20.332Z,101792.53
2018-06-01T07:14:47.978Z,101796.88
2018-06-01T07:17:15.615Z,101795.08
2018-06-01T07:19:43.218Z,101787.88
2018-06-01T07:22:10.841Z,101791.10
2018-06-01T07:24:38.440Z,101792.36
2018-06-01T07:27:06.053Z,101791.00
2018-06-01T07:29:33.661Z,101789.31
2018-06-01T07:32:01.266Z,101787.09
2018-06-01T07:34:28.890Z,101778.93
2018-06-01T07:36:56.488Z,101770.84
2018-06-01T07:39:24.092Z,101769.84
2018-06-01T07:41:51.779Z,101768.55
2018-06-01T07:44:19.377Z,101759.19
2018-06-01T07:46:47.084Z,101759.27
2018-06-01T07:49:14.724Z,101755.78
2018-06-01T07:51:42.330Z,101748.12
2018-06-01T07:54:09.990Z,101755.48
2018-06-01T07:56:37.626Z,101754.92
2018-06-01T07:59:05.225Z,101751.50
2018-06-01T08:01:32.835Z,101749.78
2018-06-01T08:04:00.428Z,101743.91
2018-06-01T08:06:28.022Z,101744.84
2018-06-01T08:08:55.615Z,101740.77
2018-06-01T08:11:23.254Z,101738.27
2018-06-01T08:13:50.864Z,101733.93
2018-06-01T08:16:18.461Z,101728.56
2018-06-01T08:18:46.128Z,101734.06
2018-06-01T08:21:13.718Z,101730.55
2018-06-01T08:23:41.312Z,101730.69
2018-06-01T08:26:08.897Z,101729.86
2018-06-01T08:28:36.481Z,101732.78
2018-06-01T08:31:04.068Z,101736.03
2018-06-01T08:33:31.689Z,101736.10
2018-06-01T08:35:59.279Z,101730.89
2018-06-01T08:38:26.867Z,101729.11
2018-06-01T08:40:54.506Z,101729.17
2018-06-01T08:43:22.097Z,101724.83
2018-06-01T08:45:49.697Z,101724.03
2018-06-01T08:48:17.289Z,101720.48
2018-06-01T08:50:45.009Z,101713.83
2018-06-01T08:53:12.597Z,101715.85
2018-06-01T08:55:40.187Z,101715.98
2018-06-01T08:58:07.783Z,101720.16
2018-06-01T09:00:35.365Z,101717.44
2018-06-01T09:03:03.107Z,101720.30
2018-06-01T09:05:30.709Z,101714.59
2018-06-01T09:07:58.308Z,101710.59
2018-06-01T09:10:25.934Z,101696.66
2018-06-01T09:12:53.535Z,101706.24
2018-06-01T09:15:21.124Z,101698.59
2018-06-01T09:17:48.729Z,101692.02
2018-06-01T09:20:16.319Z,101689.87
2018-06-01T09:22:43.914Z,101688.94
2018-06-01T09:25:11.630Z,101692.75
2018-06-01T09:27:39.210Z,101688.74
2018-06-01T09:30:06.793Z,101680.82
2018-06-01T09:32:34.395Z,101680.76
2018-06-01T09:35:02.012Z,101675.48
2018-06-01T09:37:29.597Z,101672.14
2018-06-01T09:39:57.252Z,101667.10
2018-06-01T09:42:24.857Z,101666.77
2018-06-01T09:44:52.468Z,101659.18
2018-06-01T09:47:20.059Z,101663.86
2018-06-01T09:49:47.657Z,101658.55
2018-06-01T09:52:15.258Z,101664.95
2018-06-01T09:54:42.861Z,101652.92
2018-06-01T09:57:10.454Z,101656.23
2018-06-01T09:59:38.046Z,101645.50
2018-06-01T10:02:05.633Z,101650.17
2018-06-01T10:04:33.229Z,101652.96
2018-06-01T10:07:00.898Z,101648.02
2018-06-01T10:09:28.493Z,101636.39
2018-06-01T10:11:56.084Z,101637.98
2018-06-01T10:14:23.681Z,101630.33
2018-06-01T10:16:51.275Z,101628.54
2018-06-01T10:19:18.866Z,101615.55
2018-06-01T10:21:46.462Z,101620.19
2018-06-01T10:24:14.072Z,101618.53
2018-06-01T10:26:41.674Z,101615.45
2018-06-01T10:29:09.291Z,101607.97
2018-06-01T10:31:36.887Z,101606.84
2018-06-01T10:34:04.489Z,101610.98
2018-06-01T10:36:32.095Z,101608.77
2018-06-01T10:38:59.750Z,101605.29
2018-06-01T10:41:27.353Z,101603.14
2018-06-01T10:43:54.942Z,101601.78
2018-06-01T10:46:22.595Z,101596.02
2018-06-01T10:48:50.207Z,101595.22
2018-06-01T10:51:17.827Z,101596.64
2018-06-01T10:53:45.414Z,101594.59
2018-06-01T10:56:13.006Z,101596.45
2018-06-01T10:58:40.589Z,101592.97
2018-06-01T11:01:08.173Z,101596.55
2018-06-01T11:03:35.753Z,101583.09
2018-06-01T11:06:03.358Z,101586.74
2018-06-01T11:08:30.961Z,101584.26
2018-06-01T11:10:58.560Z,101580.61
2018-06-01T11:13:26.186Z,101573.46
2018-06-01T11:15:53.784Z,101569.92
2018-06-01T11:18:21.398Z,101564.12
2018-06-01T11:20:48.999Z,101564.19
2018-06-01T11:23:16.602Z,101569.72
2018-06-01T11:25:44.203Z,101564.72
2018-06-01T11:28:11.814Z,101564.72
2018-06-01T11:30:39.468Z,101555.70
2018-06-01T11:33:07.076Z,101557.56
2018-06-01T11:35:34.695Z,101557.62
2018-06-01T11:38:02.294Z,101553.62
2018-06-01T11:40:29.894Z,101555.08
2018-06-01T11:42:57.485Z,101546.57
2018-06-01T11:45:25.079Z,101546.57
2018-06-01T11:47:52.666Z,101548.09
2018-06-01T11:50:20.280Z,101539.95
2018-06-01T11:52:47.890Z,101533.29
2018-06-01T11:55:15.534Z,101531.94
2018-06-01T11:57:43.142Z,101532.36
2018-06-01T12:00:10.740Z,101512.49
2018-06-01T12:02:38.340Z,101515.80
2018-06-01T12:05:05.933Z,101515.73
2018-06-01T12:07:33.525Z,101510.88
2018-06-01T12:10:01.128Z,101512.66
2018-06-01T12:12:28.729Z,101501.44
2018-06-01T12:14:56.331Z,101500.08
2018-06-01T12:17:23.919Z,101504.52
2018-06-01T12:19:51.535Z,101502.66
2018-06-01T12:22:19.137Z,101499.65
2018-06-01T12:24:46.736Z,101491.50
2018-06-01T12:27:14.323Z,101486.59
2018-06-01T12:29:41.912Z,101483.35
2018-06-01T12:32:09.514Z,101482.09
2018-06-01T12:34:37.106Z,101470.01
2018-06-01T12:37:04.701Z,101471.73
2018-06-01T12:39:32.292Z,101475.38
2018-06-01T12:41:59.923Z,101463.16
2018-06-01T12:44:27.530Z,101461.30
2018-06-01T12:46:55.118Z,101458.22
2018-06-01T12:49:22.790Z,101450.17
2018-06-01T12:51:50.385Z,101452.03
2018-06-01T12:54:17.984Z,101441.17
2018-06-01T12:56:45.612Z,101437.59
2018-06-01T12:59:13.199Z,101434.02
2018-06-01T13:01:40.788Z,101437.23
2018-06-01T13:04:08.421Z,101436.41
2018-06-01T13:06:36.043Z,101427.30
2018-06-01T13:09:03.708Z,101421.97
2018-06-01T13:11:31.302Z,101421.47
2018-06-01T13:13:58.895Z,101418.75
2018-06-01T13:16:26.482Z,101416.97
2018-06-01T13:18:54.070Z,101409.32
2018-06-01T13:21:21.668Z,101406.53
2018-06-01T13:23:49.246Z,101403.03
2018-06-01T13:26:16.875Z,101407.03
2018-06-01T13:28:44.462Z,101402.09
2018-06-01T13:31:12.140Z,101400.81
2018-06-01T13:33:39.772Z,101394.02
2018-06-01T13:36:07.362Z,101393.70
2018-06-01T13:38:34.942Z,101393.33
2018-06-01T13:41:02.545Z,101391.80
2018-06-01T13:43:30.193Z,101387.73
2018-06-01T13:45:57.790Z,101380.12
2018-06-01T13:48:25.402Z,101381.47
2018-06-01T13:50:53.000Z,101377.73
2018-06-01T13:53:20.583Z,101379.16
2018-06-01T13:55:48.201Z,101381.97
2018-06-01T13:58:15.795Z,101377.97
2018-06-01T14:00:43.383Z,101377.90
2018-06-01T14:03:10.977Z,101383.40
2018-06-01T14:05:38.561Z,101373.83
2018-06-01T14:08:06.154Z,101374.33
2018-06-01T14:10:33.805Z,101362.17
2018-06-01T14:13:01.407Z,101366.61
2018-06-01T14:15:28.995Z,101359.82
2018-06-01T14:17:56.590Z,101357.25
2018-06-01T14:20:24.174Z,101363.20
2018-06-01T14:22:51.772Z,101360.39
2018-06-01T14:25:19.375Z,101368.97
2018-06-01T14:27:46.981Z,101361.25
2018-06-01T14:30:14.571Z,101353.17
2018-06-01T14:32:42.187Z,101352.53
2018-06-01T14:35:09.804Z,101350.39
2018-06-01T14:37:37.417Z,101346.25
2018-06-01T14:40:05.038Z,101352.17
2018-06-01T14:42:32.638Z,101340.03
2018-06-01T14:45:00.247Z,101341.81
2018-06-01T14:47:27.843Z,101344.45
2018-06-01T14:49:55.434Z,101332.17
2018-06-01T14:52:23.018Z,101327.67
2018-06-01T14:54:50.635Z,101320.45
2018-06-01T14:57:18.239Z,101324.03
2018-06-01T14:59:45.834Z,101322.80
2018-06-01T15:02:13.429Z,101320.52
2018-06-01T15:04:41.023Z,101317.38
2018-06-01T15:07:08.677Z,101312.88
2018-06-01T15:09:36.328Z,101310.52
2018-06-01T15:12:03.923Z,101308.73
2018-06-01T15:14:31.519Z,101304.23
2018-06-01T15:16:59.138Z,101301.02
2018-06-01T15:19:26.765Z,101299.73
2018-06-01T15:21:54.365Z,101297.45
2018-06-01T15:24:21.972Z,101297.95
2018-06-01T15:26:49.583Z,101295.16
2018-06-01T15:29:17.182Z,101288.38
2018-06-01T15:31:44.852Z,101285.66
2018-06-01T15:34:12.444Z,101286.58
2018-06-01T15:36:40.033Z,101286.52
2018-06-01T15:39:07.651Z,101275.16
2018-06-01T15:41:35.255Z,101282.02
2018-06-01T15:44:02.860Z,101281.09
2018-06-01T15:46:30.461Z,101276.16
2018-06-01T15:48:58.103Z,101274.30
2018-06-01T15:51:25.732Z,101269.01
2018-06-01T15:53:53.329Z,101264.93
2018-06-01T15:56:20.921Z,101269.86
2018-06-01T15:58:48.591Z,101266.72
2018-06-01T16:01:16.287Z,101266.39
2018-06-01T16:03:43.895Z,101269.01
2018-06-01T16:06:11.489Z,101262.81
2018-06-01T16:08:39.095Z,101257.75
2018-06-01T16:11:06.703Z,101265.96
2018-06-01T16:13:34.306Z,101268.31
2018-06-01T16:16:01.893Z,101272.49
2018-06-01T16:18:29.487Z,101271.14
2018-06-01T16:20:57.144Z,101269.34
2018-06-01T16:23:24.754Z,101269.92
2018-06-01T16:25:52.348Z,101264.92
2018-06-01T16:28:19.957Z,101271.28
2018-06-01T16:30:47.557Z,101273.92
2018-06-01T16:33:15.211Z,101267.99
2018-06-01T16:35:42.812Z,101266.77
2018-06-01T16:38:10.415Z,101270.78
2018-06-01T16:40:38.049Z,101267.27
2018-06-01T16:43:05.680Z,101270.09
2018-06-01T16:45:33.278Z,101261.59
2018-06-01T16:48:00.874Z,101266.84
2018-06-01T16:50:28.476Z,101263.20
2018-06-01T16:52:56.075Z,101251.16
2018-06-01T16:55:23.665Z,101255.16
2018-06-01T16:57:51.268Z,101252.02
2018-06-01T17:00:18.947Z,101247.52
2018-06-01T17:02:46.568Z,101243.52
2018-06-01T17:05:14.167Z,101250.30
2018-06-01T17:07:41.784Z,101251.16
2018-06-01T17:10:09.437Z,101248.44
2018-06-01T17:12:37.042Z,101246.23
2018-06-01T17:15:04.653Z,101247.26
2018-06-01T17:17:32.266Z,101244.18
2018-06-01T17:19:59.868Z,101247.39
2018-06-01T17:22:27.465Z,101248.82
2018-06-01T17:27:21.996Z,101245.18
2018-06-01T17:29:49.665Z,101243.75
2018-06-01T17:32:17.278Z,101240.25
2018-06-01T17:34:44.881Z,101245.18
2018-06-01T17:37:12.508Z,101245.28
2018-06-01T17:39:40.129Z,101248.39
2018-06-01T17:42:07.734Z,101243.75
2018-06-01T17:44:35.342Z,101242.89
2018-06-01T17:47:02.970Z,101242.14
2018-06-01T17:49:30.582Z,101242.83
2018-06-01T17:51:58.192Z,101239.69
2018-06-01T17:54:25.801Z,101229.68
2018-06-01T17:56:53.403Z,101231.11
2018-06-01T17:59:21.016Z,101231.11
2018-06-01T18:01:48.628Z,101222.89
2018-06-01T18:04:16.224Z,101218.39
2018-06-01T18:06:43.892Z,101215.75
2018-06-01T18:09:11.605Z,101215.18
2018-06-01T18:11:39.217Z,101215.61
2018-06-01T18:14:06.810Z,101216.25
2018-06-01T18:16:34.455Z,101218.03
2018-06-01T18:19:02.054Z,101222.03
2018-06-01T18:21:29.664Z,101224.92
2018-06-01T18:23:57.268Z,101223.56
2018-06-01T18:26:24.907Z,101218.96
2018-06-01T18:28:52.521Z,101224.75
2018-06-01T18:31:20.148Z,101223.56
2018-06-01T18:33:47.747Z,101223.64
2018-06-01T18:36:15.972Z,101226.78
2018-06-01T18:38:43.565Z,101234.92
2018-06-01T18:41:11.170Z,101224.99
2018-06-01T18:43:38.779Z,101226.42
2018-06-01T18:46:06.371Z,101225.63
2018-06-01T18:48:34.041Z,101233.77
2018-06-01T18:51:01.641Z,101236.06
2018-06-01T18:53:29.274Z,101239.63
2018-06-01T18:55:56.872Z,101246.98
2018-06-01T18:58:24.526Z,101242.16
2018-06-01T19:00:52.202Z,101244.88
2018-06-01T19:03:20.568Z,101247.59
2018-06-01T19:05:48.225Z,101244.34
2018-06-01T19:08:15.853Z,101243.09
2018-06-01T19:10:43.456Z,101244.34
2018-06-01T19:13:11.091Z,101252.59
2018-06-01T19:15:38.703Z,101239.58
2018-06-01T19:18:06.301Z,101248.16
2018-06-01T19:20:34.227Z,101244.16
2018-06-01T19:23:01.832Z,101248.22
2018-06-01T19:25:29.449Z,101253.75
2018-06-01T19:27:57.054Z,101249.69
2018-06-01T19:30:24.674Z,101259.69
2018-06-01T19:32:52.262Z,101260.61
2018-06-01T19:35:20.733Z,101264.68
2018-06-01T19:37:48.344Z,101261.11
2018-06-01T19:40:15.967Z,101268.50
2018-06-01T19:42:43.584Z,101262.47
2018-06-01T19:45:11.201Z,101261.97
2018-06-01T19:47:38.811Z,101256.18
2018-06-01T19:50:06.424Z,101254.49
2018-06-01T19:52:34.033Z,101258.56
2018-06-01T19:55:01.636Z,101250.48
2018-06-01T19:57:30.042Z,101251.34
2018-06-01T19:59:57.656Z,101250.98
2018-06-01T20:02:25.258Z,101254.20
2018-06-01T20:04:52.864Z,101247.84
2018-06-01T20:07:20.509Z,101246.06
2018-06-01T20:09:48.134Z,101243.77
2018-06-01T20:12:15.750Z,101241.23
2018-06-01T20:14:43.355Z,101244.38
2018-06-01T20:17:11.381Z,101248.45
2018-06-01T20:19:39.018Z,101239.95
2018-06-01T20:22:06.644Z,101236.80
2018-06-01T20:24:34.279Z,101237.83
2018-06-01T20:27:01.900Z,101233.33
2018-06-01T20:29:29.509Z,101239.26
2018-06-01T20:31:57.118Z,101239.26
2018-06-01T20:34:24.769Z,101245.44
2018-06-01T20:36:52.385Z,101257.75
2018-06-01T20:39:19.999Z,101251.54
2018-06-01T20:41:47.632Z,101255.61
2018-06-01T20:44:15.277Z,101252.47
2018-06-01T20:46:42.912Z,101254.85
2018-06-01T20:49:10.572Z,101253.14
2018-06-01T20:51:38.189Z,101252.20
2018-06-01T20:54:05.809Z,101249.06
2018-06-01T20:56:33.425Z,101248.64
2018-06-01T20:59:01.034Z,101251.42
2018-06-01T21:01:28.671Z,101253.30
2018-06-01T21:03:56.314Z,101254.66
2018-06-01T21:06:23.981Z,101257.37
2018-06-01T21:08:51.577Z,101262.80
2018-06-01T21:11:19.178Z,101258.88
2018-06-01T21:13:47.629Z,101266.88
2018-06-01T21:16:15.262Z,101260.16
2018-06-01T21:18:42.902Z,101263.23
2018-06-01T21:21:10.519Z,101265.52
2018-06-01T21:23:38.129Z,101267.80
2018-06-01T21:26:05.752Z,101262.02
2018-06-01T21:28:33.450Z,101256.66
2018-06-01T21:31:01.098Z,101251.66
2018-06-01T21:33:28.730Z,101258.38
2018-06-01T21:35:56.327Z,101255.83
2018-06-01T21:38:24.033Z,101257.09
2018-06-01T21:40:51.698Z,101252.26
2018-06-01T21:43:19.321Z,101254.55
2018-06-01T21:45:46.919Z,101258.11
2018-06-01T21:48:14.547Z,101259.47
2018-06-01T21:50:42.148Z,101254.87
2018-06-01T21:53:09.755Z,101259.80
2018-06-01T21:55:37.356Z,101254.87
2018-06-01T21:58:04.978Z,101251.77
2018-06-01T22:00:32.586Z,101255.83
2018-06-01T22:03:00.222Z,101255.04
2018-06-01T22:05:27.871Z,101250.05
2018-06-01T22:07:55.478Z,101259.53
2018-06-01T22:10:23.109Z,101256.89
2018-06-01T22:12:50.716Z,101265.46
2018-06-01T22:15:18.334Z,101265.83
2018-06-01T22:17:45.922Z,101255.54
2018-06-01T22:20:13.600Z,101241.11
2018-06-01T22:22:41.218Z,101237.47
2018-06-01T22:25:08.866Z,101227.15
2018-06-01T22:27:36.490Z,101223.84
2018-06-01T22:30:04.261Z,101225.79
2018-06-01T22:32:31.897Z,101224.33
2018-06-01T22:34:59.541Z,101226.86
2018-06-01T22:37:27.143Z,101226.36
2018-06-01T22:39:54.912Z,101222.89
2018-06-01T22:42:22.554Z,101214.39
2018-06-01T22:44:50.215Z,101214.22
2018-06-01T22:47:18.097Z,101209.39
2018-06-01T22:49:45.741Z,101200.03
2018-06-01T22:52:13.340Z,101200.70
2018-06-01T22:54:40.980Z,101212.16
2018-06-01T22:57:08.575Z,101218.50
2018-06-01T22:59:36.169Z,101210.51
2018-06-01T23:02:03.852Z,101210.44
2018-06-01T23:04:31.441Z,101196.44
2018-06-01T23:06:59.040Z,101196.02
2018-06-01T23:09:26.638Z,101192.05
2018-06-01T23:11:54.239Z,101187.55
2018-06-01T23:14:21.865Z,101188.48
2018-06-01T23:16:49.481Z,101189.73
2018-06-01T23:19:17.087Z,101187.12
2018-06-01T23:21:44.689Z,101177.14
2018-06-01T23:24:12.322Z,101177.62
2018-06-01T23:26:39.922Z,101178.98
2018-06-01T23:29:07.521Z,101175.41
2018-06-01T23:31:35.124Z,101174.48
2018-06-01T23:34:02.837Z,101173.98
2018-06-01T23:36:30.528Z,101176.34
2018-06-01T23:38:58.155Z,101179.41
2018-06-01T23:41:25.770Z,101179.48
2018-06-01T23:43:53.405Z,101171.84
2018-06-01T23:46:21.084Z,101176.27
2018-06-01T23:48:48.679Z,101172.27
2018-06-01T23:51:16.274Z,101165.55
2018-06-01T23:53:43.968Z,101170.05
2018-06-01T23:56:11.587Z,101157.41
2018-06-01T23:58:39.186Z,101150.88
